createdAt,value
2023-05-16T00:00:45.851Z,10.29
2023-05-16T00:03:18.007Z,10.28
2023-05-16T00:05:51.062Z,10.28
2023-05-16T00:08:23.217Z,10.26
2023-05-16T00:10:55.344Z,10.23
2023-05-16T00:13:27.358Z,10.22
2023-05-16T00:15:59.774Z,10.23
2023-05-16T00:18:34.053Z,10.24
2023-05-16T00:21:06.287Z,10.24
2023-05-16T00:23:39.474Z,10.23
2023-05-16T00:26:11.467Z,10.23
2023-05-16T00:28:44.615Z,10.21
2023-05-16T00:31:16.766Z,10.18
2023-05-16T00:33:49.644Z,10.14
2023-05-16T00:36:23.681Z,10.14
2023-05-16T00:38:56.718Z,10.09
2023-05-16T00:41:29.121Z,10.08
2023-05-16T00:44:01.556Z,10.05
2023-05-16T00:46:33.588Z,10.05
2023-05-16T00:49:06.609Z,10.04
2023-05-16T00:51:40.382Z,10.00
2023-05-16T00:54:10.963Z,9.96
2023-05-16T00:56:42.982Z,9.89
2023-05-16T00:59:15.946Z,9.92
2023-05-16T04:33:27.029Z,10.04
2023-05-16T04:36:00.560Z,10.13
2023-05-16T04:38:39.122Z,10.24
2023-05-16T04:41:12.091Z,10.34
2023-05-16T04:43:46.624Z,10.45
2023-05-16T04:46:19.274Z,10.56
2023-05-16T04:48:52.516Z,10.71
2023-05-16T04:51:34.313Z,10.87
2023-05-16T04:54:09.193Z,11.06
2023-05-16T04:56:43.459Z,11.25
2023-05-16T04:59:16.271Z,11.45
2023-05-16T05:01:49.720Z,11.66
2023-05-16T05:04:23.054Z,11.85
2023-05-16T05:06:55.784Z,12.08
2023-05-16T05:09:30.056Z,12.30
2023-05-16T05:12:04.302Z,12.59
2023-05-16T05:14:37.198Z,12.82
2023-05-16T05:17:09.827Z,13.04
2023-05-16T05:19:42.696Z,13.28
2023-05-16T05:22:16.862Z,13.48
2023-05-16T05:24:49.545Z,13.73
2023-05-16T05:27:23.157Z,13.97
2023-05-16T05:29:55.927Z,14.18
2023-05-16T05:32:31.652Z,14.36
2023-05-16T05:35:04.634Z,14.55
2023-05-16T05:37:37.310Z,14.68
2023-05-16T05:40:14.330Z,14.84
2023-05-16T05:42:47.482Z,14.66
2023-05-16T05:45:20.508Z,14.49
2023-05-16T05:47:54.017Z,14.61
2023-05-16T05:50:27.142Z,14.68
2023-05-16T05:53:03.137Z,14.71
2023-05-16T05:55:35.876Z,14.93
2023-05-16T05:58:08.878Z,15.12
2023-05-16T06:00:41.630Z,15.18
2023-05-16T06:03:15.098Z,15.27
2023-05-16T06:05:48.297Z,15.36
2023-05-16T06:08:19.379Z,15.51
2023-05-16T06:10:52.343Z,15.54
2023-05-16T06:13:25.106Z,15.79
2023-05-16T06:16:00.684Z,15.91
2023-05-16T06:18:33.220Z,15.99
2023-05-16T06:21:06.324Z,16.16
2023-05-16T06:23:39.129Z,16.31
2023-05-16T06:26:11.840Z,16.41
2023-05-16T06:28:45.184Z,16.51
2023-05-16T06:31:17.862Z,16.64
2023-05-16T06:33:50.648Z,16.70
2023-05-16T06:36:23.348Z,16.82
2023-05-16T06:38:56.087Z,16.96
2023-05-16T06:41:29.169Z,16.92
2023-05-16T06:44:01.838Z,16.94
2023-05-16T06:46:35.130Z,17.15
2023-05-16T06:49:08.018Z,17.17
2023-05-16T06:51:41.087Z,17.28
2023-05-16T06:54:13.836Z,17.37
2023-05-16T06:56:45.197Z,17.50
2023-05-16T06:59:17.622Z,17.44
2023-05-16T07:01:50.872Z,17.55
2023-05-16T07:04:23.806Z,17.70
2023-05-16T07:06:55.356Z,17.84
2023-05-16T07:09:27.910Z,17.95
2023-05-16T07:12:01.007Z,18.04
2023-05-16T07:14:33.557Z,18.17
2023-05-16T07:17:08.902Z,18.40
2023-05-16T07:19:41.607Z,18.61
2023-05-16T07:22:17.193Z,18.56
2023-05-16T07:24:53.636Z,18.77
2023-05-16T07:27:27.168Z,18.84
2023-05-16T07:30:00.191Z,19.00
2023-05-16T07:32:33.457Z,19.08
2023-05-16T07:35:06.286Z,19.16
2023-05-16T07:37:37.709Z,19.23
2023-05-16T07:40:12.486Z,19.31
2023-05-16T07:42:46.093Z,19.16
2023-05-16T07:45:16.788Z,19.24
2023-05-16T07:47:49.741Z,19.26
2023-05-16T07:50:23.275Z,19.22
2023-05-16T07:52:56.061Z,19.43
2023-05-16T07:55:29.238Z,19.50
2023-05-16T07:58:00.229Z,19.54
2023-05-16T08:00:33.015Z,19.54
2023-05-16T08:03:07.068Z,19.80
2023-05-16T08:05:39.762Z,19.88
2023-05-16T08:08:14.769Z,20.02
2023-05-16T08:10:47.690Z,20.04
2023-05-16T08:13:18.967Z,20.15
2023-05-16T08:15:51.563Z,20.05
2023-05-16T08:18:24.581Z,20.24
2023-05-16T08:20:57.507Z,20.39
2023-05-16T08:23:30.906Z,20.39
2023-05-16T08:26:02.163Z,20.38
2023-05-16T08:28:35.130Z,20.36
2023-05-16T08:31:05.957Z,20.35
2023-05-16T08:33:39.033Z,20.18
2023-05-16T08:36:11.241Z,20.16
2023-05-16T08:38:44.084Z,19.91
2023-05-16T08:41:17.354Z,20.27
2023-05-16T08:43:50.598Z,20.31
2023-05-16T08:46:26.021Z,20.22
2023-05-16T08:49:05.088Z,20.37
2023-05-16T08:51:39.495Z,20.56
2023-05-16T08:54:15.971Z,20.77
2023-05-16T08:56:50.816Z,21.01
2023-05-16T08:59:24.297Z,21.21
2023-05-16T09:01:57.374Z,21.31
2023-05-16T09:04:31.482Z,21.36
2023-05-16T09:07:06.485Z,21.31
2023-05-16T09:09:39.387Z,21.05
2023-05-16T09:12:13.223Z,20.80
2023-05-16T09:14:46.145Z,20.64
2023-05-16T09:17:28.476Z,20.69
2023-05-16T09:20:18.073Z,20.80
2023-05-16T09:22:58.927Z,21.14
2023-05-16T09:25:34.959Z,21.30
2023-05-16T09:28:12.502Z,21.43
2023-05-16T09:30:48.024Z,21.54
2023-05-16T09:33:20.925Z,21.69
2023-05-16T09:35:59.889Z,21.83
2023-05-16T09:38:32.884Z,21.63
2023-05-16T09:41:06.205Z,21.47
2023-05-16T09:43:41.709Z,21.46
2023-05-16T09:46:17.973Z,21.42
2023-05-16T09:48:53.607Z,21.32
2023-05-16T09:51:29.130Z,21.42
2023-05-16T09:54:02.235Z,21.48
2023-05-16T09:56:35.984Z,21.46
2023-05-16T09:59:13.897Z,21.52
2023-05-16T10:01:47.891Z,21.43
2023-05-16T10:04:20.956Z,21.43
2023-05-16T10:06:53.015Z,21.61
2023-05-16T10:09:26.536Z,21.79
2023-05-16T10:12:04.876Z,21.95
2023-05-16T10:14:39.232Z,21.79
2023-05-16T10:17:14.322Z,21.96
2023-05-16T10:19:49.313Z,21.89
2023-05-16T10:22:24.198Z,21.99
2023-05-16T10:25:06.076Z,22.09
2023-05-16T10:27:41.968Z,22.03
2023-05-16T10:30:17.675Z,21.84
2023-05-16T10:32:52.020Z,21.83
2023-05-16T10:35:25.830Z,21.77
2023-05-16T10:38:00.154Z,21.72
2023-05-16T10:40:33.794Z,21.32
2023-05-16T10:43:10.856Z,21.31
2023-05-16T10:45:45.407Z,21.18
2023-05-16T10:48:18.292Z,21.42
2023-05-16T10:50:51.767Z,21.48
2023-05-16T10:53:33.215Z,21.70
2023-05-16T10:56:13.682Z,21.84
2023-05-16T10:58:52.283Z,21.63
2023-05-16T11:01:26.459Z,21.48
2023-05-16T11:04:18.258Z,21.52
2023-05-16T11:07:00.342Z,21.63
2023-05-16T11:09:33.464Z,21.45
2023-05-16T11:12:06.906Z,21.56
2023-05-16T11:14:45.521Z,21.76
2023-05-16T11:17:23.414Z,21.88
2023-05-16T11:20:00.051Z,21.82
2023-05-16T11:22:34.639Z,21.66
2023-05-16T11:25:10.135Z,21.41
2023-05-16T11:27:47.068Z,21.48
2023-05-16T11:30:22.260Z,21.60
2023-05-16T11:32:57.239Z,21.71
2023-05-16T11:35:32.001Z,21.84
2023-05-16T11:38:05.155Z,21.90
2023-05-16T11:40:36.673Z,21.74
2023-05-16T11:43:09.347Z,21.60
2023-05-16T11:45:42.061Z,21.69
2023-05-16T11:48:21.746Z,21.60
2023-05-16T11:51:01.592Z,21.32
2023-05-16T11:53:34.559Z,21.32
2023-05-16T11:56:05.413Z,21.49
2023-05-16T11:58:38.953Z,21.50
2023-05-16T12:01:12.346Z,21.66
2023-05-16T12:03:46.467Z,21.65
2023-05-16T12:06:19.493Z,21.70
2023-05-16T12:08:55.205Z,21.46
2023-05-16T12:11:30.505Z,21.13
2023-05-16T12:14:03.342Z,20.76
2023-05-16T12:16:37.581Z,20.78
2023-05-16T12:19:13.198Z,20.75
2023-05-16T12:21:46.793Z,20.59
2023-05-16T12:24:19.455Z,20.52
2023-05-16T12:26:55.349Z,20.39
2023-05-16T12:29:28.666Z,20.39
2023-05-16T12:32:03.007Z,20.22
2023-05-16T12:34:35.625Z,20.08
2023-05-16T12:37:09.177Z,20.03
2023-05-16T12:39:47.323Z,19.73
2023-05-16T12:42:21.351Z,19.59
2023-05-16T12:44:59.205Z,19.51
2023-05-16T12:47:40.311Z,19.55
2023-05-16T12:50:16.798Z,19.58
2023-05-16T12:52:54.713Z,19.67
2023-05-16T12:55:29.553Z,19.73
2023-05-16T12:58:04.789Z,19.71
2023-05-16T13:00:38.315Z,19.52
2023-05-16T13:03:11.178Z,19.37
2023-05-16T13:05:43.908Z,19.18
2023-05-16T13:08:16.729Z,18.97
2023-05-16T13:10:49.326Z,18.84
2023-05-16T13:13:35.544Z,18.76
2023-05-16T13:16:10.687Z,18.69
2023-05-16T13:18:43.931Z,18.59
2023-05-16T13:21:15.492Z,18.66
2023-05-16T13:23:50.516Z,18.59
2023-05-16T13:26:23.878Z,18.57
2023-05-16T13:28:56.603Z,18.47
2023-05-16T13:31:29.434Z,18.40
2023-05-16T13:34:02.225Z,18.38
2023-05-16T13:36:52.143Z,18.48
2023-05-16T13:39:27.664Z,18.42
2023-05-16T13:42:03.717Z,18.42
2023-05-16T13:44:39.380Z,18.44
2023-05-16T13:47:13.389Z,18.38
2023-05-16T13:49:46.349Z,18.43
2023-05-16T13:52:33.999Z,18.40
2023-05-16T13:55:16.285Z,18.23
2023-05-16T13:57:50.412Z,18.36
2023-05-16T14:02:59.989Z,18.32
2023-05-16T14:05:33.594Z,18.24
2023-05-16T14:08:05.362Z,18.13
2023-05-16T14:10:38.710Z,18.05
2023-05-16T14:13:14.841Z,18.10
2023-05-16T14:15:48.074Z,18.12
2023-05-16T14:18:18.896Z,18.13
2023-05-16T14:20:52.630Z,18.06
2023-05-16T14:23:25.295Z,18.02
2023-05-16T14:25:58.205Z,18.03
2023-05-16T14:28:31.111Z,17.92
2023-05-16T14:31:04.278Z,17.86
2023-05-16T14:33:37.288Z,17.84
2023-05-16T14:36:10.897Z,17.78
2023-05-16T14:38:45.107Z,17.85
2023-05-16T14:41:16.616Z,17.80
2023-05-16T14:43:49.797Z,17.66
2023-05-16T14:46:22.797Z,17.68
2023-05-16T14:48:57.665Z,17.50
2023-05-16T14:51:32.325Z,17.44
2023-05-16T14:54:06.021Z,17.34
2023-05-16T14:56:38.839Z,17.34
2023-05-16T14:59:11.539Z,17.24
2023-05-16T15:01:44.467Z,17.20
2023-05-16T15:04:18.280Z,17.11
2023-05-16T15:06:54.649Z,17.04
2023-05-16T15:09:27.561Z,16.98
2023-05-16T15:12:00.256Z,16.99
2023-05-16T15:14:31.352Z,16.97
2023-05-16T15:17:08.163Z,16.86
2023-05-16T15:19:43.236Z,16.87
2023-05-16T15:22:16.199Z,16.79
2023-05-16T15:24:49.378Z,16.79
2023-05-16T15:27:23.122Z,16.78
2023-05-16T15:29:55.772Z,16.71
2023-05-16T15:32:36.816Z,16.70
2023-05-16T15:35:15.925Z,16.74
2023-05-16T15:37:50.534Z,16.77
2023-05-16T15:40:29.584Z,16.75
2023-05-16T15:43:04.221Z,16.72
2023-05-16T15:45:40.360Z,16.71
2023-05-16T15:48:14.016Z,16.70
2023-05-16T15:50:50.142Z,16.68
2023-05-16T15:53:23.588Z,16.73
2023-05-16T15:56:01.250Z,16.76
2023-05-16T15:58:39.398Z,16.74
2023-05-16T16:01:13.752Z,16.73
2023-05-16T16:03:48.894Z,16.76
2023-05-16T16:06:26.808Z,16.79
2023-05-16T16:09:01.818Z,16.80
2023-05-16T16:11:38.618Z,16.80
2023-05-16T16:14:14.712Z,16.74
2023-05-16T16:16:54.024Z,16.66
2023-05-16T16:19:34.804Z,16.54
2023-05-16T16:22:09.595Z,16.44
2023-05-16T16:24:43.644Z,16.30
2023-05-16T16:27:20.066Z,16.11
2023-05-16T16:29:55.312Z,15.94
2023-05-16T16:32:29.990Z,15.84
2023-05-16T16:35:06.312Z,15.68
2023-05-16T16:37:54.582Z,15.59
2023-05-16T16:40:39.620Z,15.44
2023-05-16T16:43:12.652Z,15.32
2023-05-16T16:45:45.613Z,15.24
2023-05-16T16:48:18.208Z,15.18
2023-05-16T16:50:52.597Z,15.08
2023-05-16T16:53:25.233Z,15.00
2023-05-16T16:55:58.048Z,15.01
2023-05-16T16:58:30.616Z,14.94
2023-05-16T17:01:14.379Z,14.86
2023-05-16T17:03:51.957Z,14.87
2023-05-16T17:06:27.246Z,14.85
2023-05-16T17:09:03.619Z,14.78
2023-05-16T17:11:37.429Z,14.75
2023-05-16T17:14:13.028Z,14.71
2023-05-16T17:16:45.852Z,14.54
2023-05-16T17:19:18.586Z,14.43
2023-05-16T17:21:52.634Z,14.42
2023-05-16T17:24:25.506Z,14.32
2023-05-16T17:26:59.334Z,14.27
2023-05-16T17:29:32.346Z,14.19
2023-05-16T17:32:07.350Z,14.16
2023-05-16T17:34:39.915Z,14.16
2023-05-16T17:37:12.603Z,14.11
2023-05-16T17:39:45.089Z,14.11
2023-05-16T17:42:17.739Z,14.16
2023-05-16T17:44:50.960Z,14.23
2023-05-16T17:47:21.803Z,14.29
2023-05-16T17:49:54.640Z,14.25
2023-05-16T17:52:27.870Z,14.28
2023-05-16T17:55:01.167Z,14.34
2023-05-16T17:57:34.664Z,14.41
2023-05-16T18:00:15.330Z,14.44
2023-05-16T18:02:49.271Z,14.40
2023-05-16T18:05:22.722Z,14.40
2023-05-16T18:07:53.664Z,14.44
2023-05-16T18:10:29.463Z,14.40
2023-05-16T18:13:07.532Z,14.48
2023-05-16T18:15:40.811Z,14.53
2023-05-16T18:18:19.015Z,14.58
2023-05-16T18:20:53.130Z,14.61
2023-05-16T18:23:26.568Z,14.65
2023-05-16T18:26:02.558Z,14.66
2023-05-16T18:28:35.770Z,14.66
2023-05-16T18:31:09.485Z,14.66
2023-05-16T18:33:44.484Z,14.61
2023-05-16T18:36:17.123Z,14.58
2023-05-16T18:38:49.760Z,14.53
2023-05-16T18:41:24.797Z,14.48
2023-05-16T18:43:58.243Z,14.46
2023-05-16T18:46:37.153Z,14.48
2023-05-16T18:49:09.933Z,14.47
2023-05-16T18:51:45.078Z,14.49
2023-05-16T18:54:18.470Z,14.43
2023-05-16T18:56:53.909Z,14.48
2023-05-16T18:59:26.722Z,14.50
2023-05-16T19:01:59.540Z,14.49
2023-05-16T19:04:35.522Z,14.42
2023-05-16T19:07:09.379Z,14.42
2023-05-16T19:09:42.554Z,14.42
2023-05-16T19:12:15.513Z,14.42
2023-05-16T19:14:52.951Z,14.43
2023-05-16T19:17:26.039Z,14.46
2023-05-16T19:19:58.882Z,14.45
2023-05-16T19:22:31.705Z,14.45
2023-05-16T19:25:06.013Z,14.44
2023-05-16T19:27:38.852Z,14.40
2023-05-16T19:30:13.756Z,14.37
2023-05-16T19:32:46.874Z,14.37
2023-05-16T19:35:20.166Z,14.40
2023-05-16T19:37:52.964Z,14.41
2023-05-16T19:41:13.867Z,14.42
2023-05-16T19:44:52.680Z,14.39
2023-05-16T19:48:39.007Z,14.32
2023-05-16T19:55:01.076Z,14.13
2023-05-16T19:57:33.835Z,14.14
2023-05-16T20:00:07.014Z,14.14
2023-05-16T20:03:26.832Z,14.12
2023-05-16T20:06:48.474Z,14.12
2023-05-16T20:10:12.415Z,14.12
2023-05-16T20:13:38.932Z,14.12
2023-05-16T20:16:19.955Z,14.11
2023-05-16T20:18:53.654Z,14.05
2023-05-16T20:21:26.435Z,14.06
2023-05-16T20:23:59.347Z,14.09
2023-05-16T20:27:17.332Z,14.07
2023-05-16T20:30:45.212Z,14.03
2023-05-16T20:33:59.213Z,14.01
2023-05-16T20:37:21.332Z,14.01
2023-05-16T20:40:48.276Z,14.01
2023-05-16T20:44:24.991Z,13.98
2023-05-16T20:55:07.247Z,13.88
2023-05-16T20:58:14.682Z,13.75
2023-05-16T21:01:40.137Z,13.69
2023-05-16T21:04:34.852Z,13.62
2023-05-16T21:07:47.973Z,13.60
2023-05-16T21:10:57.573Z,13.57
2023-05-16T21:14:04.364Z,13.48
2023-05-16T21:17:21.754Z,13.50
2023-05-16T21:20:31.681Z,13.42
2023-05-16T21:23:45.636Z,13.41
2023-05-16T21:26:57.087Z,13.33
2023-05-16T21:30:08.275Z,13.23
2023-05-16T21:33:09.240Z,13.19
2023-05-16T21:36:00.164Z,13.10
2023-05-16T21:38:59.108Z,13.13
2023-05-16T21:41:44.136Z,13.10
2023-05-16T21:44:35.432Z,13.06
2023-05-16T21:47:28.725Z,13.00
2023-05-16T21:50:27.807Z,12.99
2023-05-16T21:53:11.910Z,12.98
2023-05-16T21:55:56.578Z,12.97
2023-05-16T21:58:33.003Z,12.95
2023-05-16T22:01:11.922Z,12.92
2023-05-16T22:03:47.668Z,12.90
2023-05-16T22:06:23.795Z,12.89
2023-05-16T22:09:22.673Z,12.85
2023-05-16T22:11:57.279Z,12.76
2023-05-16T22:14:32.941Z,12.67
2023-05-16T22:17:07.884Z,12.60
2023-05-16T22:19:43.451Z,12.59
2023-05-16T22:22:16.333Z,12.55
2023-05-16T22:24:48.926Z,12.54
2023-05-16T22:27:21.740Z,12.46
2023-05-16T22:29:54.358Z,12.48
2023-05-16T22:32:28.521Z,12.44
2023-05-16T22:35:01.196Z,12.46
2023-05-16T22:37:33.929Z,12.45
2023-05-16T22:40:10.603Z,12.49
2023-05-16T22:42:43.323Z,12.50
2023-05-16T22:45:15.919Z,12.44
2023-05-16T22:47:48.911Z,12.47
2023-05-16T22:50:23.086Z,12.43
2023-05-16T22:52:55.819Z,12.43
2023-05-16T22:55:28.637Z,12.42
2023-05-16T22:58:01.602Z,12.42
2023-05-16T23:00:34.210Z,12.40
2023-05-16T23:03:07.020Z,12.43
2023-05-16T23:05:39.736Z,12.41
2023-05-16T23:08:12.733Z,12.40
2023-05-16T23:10:45.475Z,12.40
2023-05-16T23:13:18.133Z,12.38
2023-05-16T23:15:50.595Z,12.35
2023-05-16T23:18:31.025Z,12.34
2023-05-16T23:21:03.978Z,12.30
2023-05-16T23:23:36.895Z,12.33
2023-05-16T23:26:09.455Z,12.36
2023-05-16T23:28:45.017Z,12.40
2023-05-16T23:31:17.714Z,12.42
2023-05-16T23:33:50.515Z,12.44
2023-05-16T23:36:25.637Z,12.44
2023-05-16T23:39:00.734Z,12.44
2023-05-16T23:41:33.595Z,12.44
2023-05-16T23:44:06.438Z,12.41
2023-05-16T23:46:39.874Z,12.33
2023-05-16T23:49:14.101Z,12.35
2023-05-16T23:51:57.436Z,12.33
2023-05-16T23:54:31.435Z,12.31
2023-05-16T23:57:04.204Z,12.31
2023-05-16T23:59:36.965Z,12.32
